createdAt,value
2019-04-13T00:00:12.749Z,17.30
2019-04-13T00:03:00.959Z,17.30
2019-04-13T00:05:51.100Z,17.30
2019-04-13T00:08:39.329Z,17.30
2019-04-13T00:11:35.901Z,17.20
2019-04-13T00:14:24.076Z,17.20
2019-04-13T00:17:12.512Z,17.20
2019-04-13T00:20:00.847Z,17.20
2019-04-13T00:22:48.782Z,17.20
2019-04-13T00:25:37.510Z,17.20
2019-04-13T00:28:26.206Z,17.20
2019-04-13T00:31:14.266Z,17.20
2019-04-13T00:34:02.356Z,17.30
2019-04-13T00:36:50.678Z,17.30
2019-04-13T00:39:39.110Z,17.30
2019-04-13T00:42:27.553Z,17.30
2019-04-13T00:45:15.676Z,17.30
2019-04-13T00:48:04.288Z,17.30
2019-04-13T00:50:52.874Z,17.30
2019-04-13T00:53:41.366Z,17.40
2019-04-13T00:56:29.477Z,17.30
2019-04-13T00:59:17.808Z,17.30
2019-04-13T01:02:06.207Z,17.30
2019-04-13T01:04:54.277Z,17.30
2019-04-13T01:07:48.529Z,17.20
2019-04-13T01:10:38.335Z,17.20
2019-04-13T01:13:26.625Z,17.20
2019-04-13T01:16:14.799Z,17.20
2019-04-13T01:19:02.936Z,17.10
2019-04-13T01:21:51.589Z,17.10
2019-04-13T01:24:39.957Z,17.10
2019-04-13T01:27:28.316Z,17.00
2019-04-13T01:30:16.425Z,17.10
2019-04-13T01:33:04.795Z,17.00
2019-04-13T01:35:52.927Z,16.90
2019-04-13T01:38:40.970Z,16.90
2019-04-13T01:41:29.083Z,16.90
2019-04-13T01:44:17.436Z,16.90
2019-04-13T01:47:06.025Z,16.90
2019-04-13T01:49:54.445Z,16.80
2019-04-13T01:52:42.661Z,16.80
2019-04-13T01:55:31.019Z,16.80
2019-04-13T01:58:19.511Z,16.80
2019-04-13T02:01:14.785Z,16.80
2019-04-13T02:04:07.485Z,16.80
2019-04-13T02:07:13.309Z,16.70
2019-04-13T02:10:03.518Z,16.70
2019-04-13T02:12:51.996Z,16.70
2019-04-13T02:15:40.337Z,16.60
2019-04-13T02:18:29.693Z,16.70
2019-04-13T02:21:18.309Z,16.60
2019-04-13T02:24:06.439Z,16.60
2019-04-13T02:26:54.673Z,16.60
2019-04-13T02:29:43.052Z,16.60
2019-04-13T02:32:31.377Z,16.60
2019-04-13T02:35:34.469Z,16.60
2019-04-13T02:38:09.522Z,16.60
2019-04-13T02:40:58.589Z,16.60
2019-04-13T02:43:46.420Z,16.60
2019-04-13T02:46:34.649Z,16.60
2019-04-13T02:49:22.656Z,16.50
2019-04-13T02:52:10.755Z,16.60
2019-04-13T02:54:58.725Z,16.60
2019-04-13T02:57:46.792Z,16.50
2019-04-13T03:00:35.220Z,16.60
2019-04-13T03:03:06.740Z,16.60
2019-04-13T03:05:46.948Z,16.60
2019-04-13T03:08:09.852Z,16.60
2019-04-13T03:10:40.574Z,16.60
2019-04-13T03:13:29.432Z,16.60
2019-04-13T03:16:28.405Z,16.70
2019-04-13T03:19:20.940Z,16.70
2019-04-13T03:22:09.341Z,16.80
2019-04-13T03:24:57.320Z,16.80
2019-04-13T03:27:45.506Z,16.90
2019-04-13T03:30:36.671Z,17.00
2019-04-13T03:33:24.871Z,17.10
2019-04-13T03:36:12.956Z,17.20
2019-04-13T03:39:01.213Z,17.30
2019-04-13T03:41:49.371Z,17.40
2019-04-13T03:44:37.312Z,17.50
2019-04-13T03:47:25.637Z,17.50
2019-04-13T03:50:13.697Z,17.50
2019-04-13T03:53:02.037Z,17.60
2019-04-13T03:55:50.184Z,17.60
2019-04-13T03:58:38.567Z,17.60
2019-04-13T04:01:27.087Z,17.60
2019-04-13T04:04:15.254Z,17.60
2019-04-13T04:07:03.726Z,17.60
2019-04-13T04:09:51.992Z,17.60
2019-04-13T04:12:40.062Z,17.50
2019-04-13T04:15:28.489Z,17.50
2019-04-13T04:18:17.332Z,17.50
2019-04-13T04:21:06.067Z,17.50
2019-04-13T04:23:54.402Z,17.50
2019-04-13T04:26:42.963Z,17.50
2019-04-13T04:29:31.425Z,17.40
2019-04-13T04:32:19.754Z,17.40
2019-04-13T04:35:08.161Z,17.40
2019-04-13T04:37:56.749Z,17.40
2019-04-13T04:40:44.969Z,17.30
2019-04-13T04:43:33.333Z,17.30
2019-04-13T04:46:21.673Z,17.30
2019-04-13T04:49:10.042Z,17.30
2019-04-13T04:51:58.192Z,17.20
2019-04-13T04:54:46.461Z,17.20
2019-04-13T04:57:34.966Z,17.10
2019-04-13T05:00:23.289Z,17.10
2019-04-13T05:03:11.989Z,17.10
2019-04-13T05:06:00.114Z,17.10
2019-04-13T05:08:48.534Z,17.00
2019-04-13T05:11:36.646Z,17.00
2019-04-13T05:14:24.894Z,17.00
2019-04-13T05:17:13.252Z,16.90
2019-04-13T05:20:01.394Z,16.90
2019-04-13T05:22:50.012Z,16.90
2019-04-13T05:25:38.528Z,16.90
2019-04-13T05:28:26.676Z,16.80
2019-04-13T05:31:14.714Z,16.80
2019-04-13T05:34:02.688Z,16.80
2019-04-13T05:36:51.111Z,16.80
2019-04-13T05:39:39.612Z,16.90
2019-04-13T05:42:27.650Z,16.90
2019-04-13T05:45:16.079Z,16.90
2019-04-13T05:48:04.597Z,16.90
2019-04-13T05:50:52.846Z,16.90
2019-04-13T05:53:40.895Z,16.90
2019-04-13T05:56:28.954Z,16.90
2019-04-13T05:59:17.220Z,17.00
2019-04-13T06:02:05.692Z,16.90
2019-04-13T06:04:53.846Z,16.90
2019-04-13T06:07:42.179Z,16.90
2019-04-13T06:10:30.386Z,16.90
2019-04-13T06:13:18.472Z,16.90
2019-04-13T06:16:09.152Z,16.90
2019-04-13T06:18:57.419Z,17.00
2019-04-13T06:21:45.470Z,17.00
2019-04-13T06:24:33.659Z,17.00
2019-04-13T06:27:21.867Z,17.00
2019-04-13T06:30:27.729Z,17.10
2019-04-13T06:33:20.335Z,17.10
2019-04-13T06:36:09.288Z,17.20
2019-04-13T06:38:59.772Z,17.30
2019-04-13T06:41:48.231Z,17.30
2019-04-13T06:44:36.841Z,17.30
2019-04-13T06:47:25.291Z,17.40
2019-04-13T06:50:13.619Z,17.40
2019-04-13T06:53:01.690Z,17.50
2019-04-13T06:55:49.851Z,17.50
2019-04-13T06:58:38.105Z,17.50
2019-04-13T07:01:26.535Z,17.50
2019-04-13T07:04:15.059Z,17.50
2019-04-13T07:07:10.821Z,17.50
2019-04-13T07:10:06.180Z,17.60
2019-04-13T07:13:11.953Z,17.60
2019-04-13T07:16:20.204Z,17.60
2019-04-13T07:19:08.633Z,17.60
2019-04-13T07:21:56.951Z,17.70
2019-04-13T07:24:45.153Z,17.70
2019-04-13T07:27:33.270Z,17.70
2019-04-13T07:30:26.858Z,17.40
2019-04-13T07:33:32.418Z,17.40
2019-04-13T07:36:22.510Z,17.60
2019-04-13T07:39:17.389Z,17.70
2019-04-13T07:42:04.870Z,17.70
2019-04-13T07:44:56.947Z,17.70
2019-04-13T07:47:49.538Z,17.70
2019-04-13T07:50:42.273Z,17.60
2019-04-13T07:53:30.550Z,17.60
2019-04-13T07:56:21.303Z,17.60
2019-04-13T07:59:11.726Z,17.60
2019-04-13T08:02:00.373Z,17.60
2019-04-13T08:04:48.964Z,17.50
2019-04-13T08:07:49.139Z,17.60
2019-04-13T08:10:28.038Z,17.60
2019-04-13T08:13:16.774Z,17.70
2019-04-13T08:16:06.920Z,17.70
2019-04-13T08:19:02.801Z,17.80
2019-04-13T08:21:52.878Z,17.80
2019-04-13T08:24:41.220Z,17.90
2019-04-13T08:27:31.263Z,18.00
2019-04-13T08:30:20.597Z,18.00
2019-04-13T08:33:09.100Z,18.10
2019-04-13T08:35:58.317Z,18.20
2019-04-13T08:38:58.146Z,18.20
2019-04-13T08:41:36.732Z,18.30
2019-04-13T08:44:25.353Z,18.30
2019-04-13T08:47:13.762Z,18.40
2019-04-13T08:50:02.269Z,18.40
2019-04-13T08:52:50.377Z,18.50
2019-04-13T08:55:40.225Z,18.50
2019-04-13T08:58:30.146Z,18.60
2019-04-13T09:01:19.214Z,18.70
2019-04-13T09:04:07.559Z,18.70
2019-04-13T09:06:56.168Z,18.80
2019-04-13T09:09:48.338Z,18.90
2019-04-13T09:12:34.493Z,18.90
2019-04-13T09:15:06.812Z,18.90
2019-04-13T09:18:12.741Z,18.80
2019-04-13T09:21:08.770Z,18.80
2019-04-13T09:23:55.669Z,18.90
2019-04-13T09:26:44.158Z,18.90
2019-04-13T09:29:32.526Z,18.90
2019-04-13T09:32:21.119Z,18.80
2019-04-13T09:35:09.626Z,18.80
2019-04-13T09:37:57.925Z,18.80
2019-04-13T09:40:46.346Z,18.80
2019-04-13T09:43:48.154Z,18.90
2019-04-13T09:46:37.640Z,18.90
2019-04-13T09:49:26.533Z,19.00
2019-04-13T09:52:15.381Z,19.00
2019-04-13T09:55:03.539Z,19.00
2019-04-13T09:57:52.049Z,19.00
2019-04-13T10:00:41.897Z,19.00
2019-04-13T10:03:29.973Z,19.10
2019-04-13T10:06:18.229Z,19.40
2019-04-13T10:09:08.615Z,19.60
2019-04-13T10:12:01.207Z,19.70
2019-04-13T10:14:50.984Z,19.40
2019-04-13T10:17:43.413Z,19.20
2019-04-13T10:21:47.055Z,19.10
2019-04-13T10:24:36.320Z,19.10
2019-04-13T10:27:24.432Z,19.20
2019-04-13T10:30:13.237Z,19.10
2019-04-13T10:33:20.989Z,19.20
2019-04-13T10:36:09.133Z,19.10
2019-04-13T10:39:07.924Z,19.10
2019-04-13T10:41:47.403Z,19.10
2019-04-13T10:44:41.749Z,19.00
2019-04-13T10:47:31.910Z,19.00
2019-04-13T10:50:21.869Z,19.00
2019-04-13T10:53:10.537Z,19.00
2019-04-13T10:55:58.796Z,19.00
2019-04-13T10:58:47.129Z,19.00
2019-04-13T11:01:35.667Z,19.00
2019-04-13T11:04:24.003Z,19.00
2019-04-13T11:07:12.578Z,19.00
2019-04-13T11:10:01.517Z,19.00
2019-04-13T11:12:51.003Z,19.00
2019-04-13T11:15:27.567Z,18.90
2019-04-13T11:18:15.954Z,18.90
2019-04-13T11:21:05.057Z,18.90
2019-04-13T11:23:53.743Z,18.90
2019-04-13T11:26:42.162Z,18.90
2019-04-13T11:29:30.556Z,18.90
2019-04-13T11:32:19.414Z,18.80
2019-04-13T11:35:08.986Z,18.80
2019-04-13T11:37:57.670Z,18.80
2019-04-13T11:40:47.683Z,18.70
2019-04-13T11:43:53.858Z,18.70
2019-04-13T11:46:59.084Z,18.70
2019-04-13T11:49:48.453Z,18.70
2019-04-13T11:52:36.881Z,18.70
2019-04-13T11:55:25.305Z,18.70
2019-04-13T11:58:15.920Z,18.70
2019-04-13T12:01:07.266Z,18.70
2019-04-13T12:04:08.636Z,18.80
2019-04-13T12:07:00.477Z,18.80
2019-04-13T12:10:05.774Z,18.80
2019-04-13T12:13:13.793Z,18.80
2019-04-13T12:16:17.248Z,18.80
2019-04-13T12:19:10.015Z,18.80
2019-04-13T12:22:00.181Z,18.80
2019-04-13T12:24:48.806Z,18.80
2019-04-13T12:27:37.350Z,18.80
2019-04-13T12:30:28.441Z,18.90
2019-04-13T12:33:20.160Z,18.90
2019-04-13T12:36:07.106Z,18.90
2019-04-13T12:38:57.312Z,18.90
2019-04-13T12:41:59.765Z,18.90
2019-04-13T12:44:50.229Z,19.00
2019-04-13T12:47:42.184Z,19.00
2019-04-13T12:50:28.107Z,19.00
2019-04-13T12:53:16.580Z,19.00
2019-04-13T12:56:06.204Z,19.00
2019-04-13T12:58:55.522Z,19.10
2019-04-13T13:01:57.990Z,19.10
2019-04-13T13:05:03.929Z,19.10
2019-04-13T13:07:52.367Z,19.10
2019-04-13T13:10:40.910Z,19.10
2019-04-13T13:13:29.439Z,19.10
2019-04-13T13:16:18.067Z,19.10
2019-04-13T13:19:06.273Z,19.10
2019-04-13T13:21:54.613Z,19.10
2019-04-13T13:24:43.370Z,19.10
2019-04-13T13:27:33.083Z,19.20
2019-04-13T13:30:21.973Z,19.20
2019-04-13T13:33:10.519Z,19.20
2019-04-13T13:35:58.898Z,19.10
2019-04-13T13:38:47.389Z,19.00
2019-04-13T13:41:35.553Z,19.00
2019-04-13T13:44:23.753Z,19.10
2019-04-13T13:47:12.033Z,19.10
2019-04-13T13:50:01.421Z,19.20
2019-04-13T13:52:49.696Z,19.20
2019-04-13T13:55:57.554Z,19.20
2019-04-13T13:59:04.402Z,19.20
2019-04-13T14:02:00.279Z,19.20
2019-04-13T14:04:48.723Z,19.20
2019-04-13T14:07:37.979Z,19.20
2019-04-13T14:10:26.447Z,19.40
2019-04-13T14:13:16.873Z,19.50
2019-04-13T14:16:04.504Z,19.60
2019-04-13T14:18:57.278Z,19.70
2019-04-13T14:21:44.029Z,19.80
2019-04-13T14:24:34.133Z,19.90
2019-04-13T14:27:23.322Z,20.00
2019-04-13T14:30:12.027Z,20.00
2019-04-13T14:33:00.233Z,20.00
2019-04-13T14:35:48.464Z,20.00
2019-04-13T14:38:36.956Z,20.00
2019-04-13T14:41:25.651Z,20.10
2019-04-13T14:44:14.324Z,20.20
2019-04-13T14:49:30.834Z,20.00
2019-04-13T14:52:19.588Z,19.90
2019-04-13T14:55:08.351Z,19.80
2019-04-13T14:57:57.105Z,19.80
2019-04-13T15:00:45.991Z,19.80
2019-04-13T15:03:34.582Z,19.80
2019-04-13T15:06:25.135Z,19.70
2019-04-13T15:09:17.265Z,19.70
2019-04-13T15:12:03.344Z,19.70
2019-04-13T15:14:52.124Z,19.60
2019-04-13T15:17:41.364Z,19.60
2019-04-13T15:20:35.613Z,19.60
2019-04-13T15:23:21.265Z,19.60
2019-04-13T15:26:10.825Z,19.60
2019-04-13T15:29:00.902Z,19.50
2019-04-13T15:31:51.027Z,19.50
2019-04-13T15:34:40.990Z,19.60
2019-04-13T15:37:30.228Z,19.50
2019-04-13T15:40:22.940Z,19.50
2019-04-13T15:43:15.997Z,19.50
2019-04-13T15:45:58.510Z,19.50
2019-04-13T15:48:47.455Z,19.50
2019-04-13T15:51:36.682Z,19.50
2019-04-13T15:54:26.656Z,19.50
2019-04-13T15:57:15.258Z,19.50
2019-04-13T16:00:07.080Z,19.50
2019-04-13T16:02:56.314Z,19.50
2019-04-13T16:05:45.757Z,19.50
2019-04-13T16:08:36.069Z,19.50
2019-04-13T16:11:27.050Z,19.50
2019-04-13T16:14:16.594Z,19.50
2019-04-13T16:17:05.664Z,19.50
2019-04-13T16:19:54.846Z,19.40
2019-04-13T16:22:43.567Z,19.50
2019-04-13T16:25:32.271Z,19.50
2019-04-13T16:28:41.625Z,19.40
2019-04-13T16:31:40.364Z,19.50
2019-04-13T16:34:46.260Z,19.40
2019-04-13T16:37:36.668Z,19.40
2019-04-13T16:40:27.079Z,19.40
2019-04-13T16:43:17.950Z,19.40
2019-04-13T16:46:11.488Z,19.40
2019-04-13T16:49:11.088Z,19.40
2019-04-13T16:52:15.552Z,19.40
2019-04-13T16:55:14.806Z,19.40
2019-04-13T16:58:11.455Z,19.40
2019-04-13T17:01:16.811Z,19.40
2019-04-13T17:04:23.633Z,19.40
2019-04-13T17:07:13.254Z,19.40
2019-04-13T17:10:02.359Z,19.40
2019-04-13T17:12:51.151Z,19.40
2019-04-13T17:15:39.828Z,19.40
2019-04-13T17:18:46.457Z,19.50
2019-04-13T17:21:45.837Z,19.50
2019-04-13T17:24:36.640Z,19.60
2019-04-13T17:27:30.150Z,19.60
2019-04-13T17:30:21.749Z,19.60
2019-04-13T17:33:12.820Z,19.30
2019-04-13T17:36:04.048Z,19.30
2019-04-13T17:38:54.039Z,19.50
2019-04-13T17:41:46.902Z,19.70
2019-04-13T17:44:37.530Z,19.80
2019-04-13T17:47:28.809Z,19.80
2019-04-13T17:50:22.259Z,19.90
2019-04-13T17:53:13.671Z,20.00
2019-04-13T17:56:04.768Z,20.10
2019-04-13T17:58:55.137Z,20.20
2019-04-13T18:02:03.370Z,20.30
2019-04-13T18:04:53.745Z,20.30
2019-04-13T18:08:01.610Z,20.30
2019-04-13T18:10:57.298Z,20.30
2019-04-13T18:13:53.135Z,20.40
2019-04-13T18:16:39.941Z,20.40
2019-04-13T18:19:29.914Z,20.50
2019-04-13T18:22:19.177Z,20.50
2019-04-13T18:25:07.757Z,20.50
2019-04-13T18:27:57.771Z,20.50
2019-04-13T18:30:48.394Z,20.50
2019-04-13T18:33:39.016Z,20.50
2019-04-13T18:36:28.035Z,20.50
2019-04-13T18:39:17.316Z,20.50
2019-04-13T18:42:05.692Z,20.50
2019-04-13T18:44:55.094Z,20.40
2019-04-13T18:47:44.969Z,20.30
2019-04-13T18:50:33.879Z,20.20
2019-04-13T18:53:23.395Z,20.10
2019-04-13T18:56:12.435Z,20.00
2019-04-13T18:59:02.335Z,20.00
2019-04-13T19:01:51.709Z,19.90
2019-04-13T19:04:40.553Z,19.80
2019-04-13T19:07:30.209Z,19.80
2019-04-13T19:10:19.779Z,19.80
2019-04-13T19:13:08.313Z,19.80
2019-04-13T19:15:57.099Z,19.70
2019-04-13T19:18:46.539Z,19.70
2019-04-13T19:21:34.968Z,19.70
2019-04-13T19:24:23.629Z,19.70
2019-04-13T19:27:12.469Z,19.60
2019-04-13T19:30:00.968Z,19.60
2019-04-13T19:32:49.446Z,19.60
2019-04-13T19:35:38.383Z,19.60
2019-04-13T19:38:26.870Z,19.60
2019-04-13T19:41:15.933Z,19.60
2019-04-13T19:44:05.282Z,19.60
2019-04-13T19:46:53.586Z,19.60
2019-04-13T19:49:42.301Z,19.50
2019-04-13T19:52:51.916Z,19.50
2019-04-13T19:55:40.361Z,19.50
2019-04-13T19:58:28.510Z,19.50
2019-04-13T20:01:19.352Z,19.50
2019-04-13T20:04:08.573Z,19.50
2019-04-13T20:06:56.776Z,19.50
2019-04-13T20:09:45.810Z,19.40
2019-04-13T20:12:34.275Z,19.40
2019-04-13T20:15:22.891Z,19.40
2019-04-13T20:18:11.382Z,19.30
2019-04-13T20:20:59.463Z,19.30
2019-04-13T20:23:48.690Z,19.30
2019-04-13T20:26:38.258Z,19.20
2019-04-13T20:29:27.805Z,19.20
2019-04-13T20:32:16.711Z,19.20
2019-04-13T20:35:06.580Z,19.10
2019-04-13T20:37:55.476Z,19.10
2019-04-13T20:40:46.611Z,19.00
2019-04-13T20:43:51.151Z,19.00
2019-04-13T20:46:29.833Z,19.00
2019-04-13T20:49:19.542Z,18.90
2019-04-13T20:52:08.778Z,18.90
2019-04-13T20:54:58.142Z,18.90
2019-04-13T20:57:47.796Z,18.80
2019-04-13T21:00:36.183Z,18.70
2019-04-13T21:03:27.339Z,18.70
2019-04-13T21:06:17.236Z,18.70
2019-04-13T21:09:09.534Z,18.60
2019-04-13T21:11:59.074Z,18.60
2019-04-13T21:14:50.054Z,18.40
2019-04-13T21:17:37.917Z,18.30
2019-04-13T21:20:27.214Z,18.30
2019-04-13T21:23:16.623Z,18.30
2019-04-13T21:26:06.324Z,18.30
2019-04-13T21:28:55.965Z,18.20
2019-04-13T21:31:45.577Z,18.20
2019-04-13T21:34:35.306Z,18.20
2019-04-13T21:37:24.940Z,18.10
2019-04-13T21:40:14.371Z,18.00
2019-04-13T21:43:04.081Z,18.00
2019-04-13T21:45:53.611Z,17.90
2019-04-13T21:48:41.822Z,17.90
2019-04-13T21:51:40.500Z,17.80
2019-04-13T21:54:30.528Z,17.80
2019-04-13T21:57:19.826Z,17.80
2019-04-13T22:00:14.145Z,17.70
2019-04-13T22:03:03.897Z,17.70
2019-04-13T22:05:52.899Z,17.70
2019-04-13T22:08:42.655Z,17.60
2019-04-13T22:11:32.236Z,17.50
2019-04-13T22:14:39.360Z,17.50
2019-04-13T22:17:11.736Z,17.50
2019-04-13T22:20:00.082Z,17.40
2019-04-13T22:22:48.986Z,17.30
2019-04-13T22:25:39.130Z,17.30
2019-04-13T22:28:29.975Z,17.30
2019-04-13T22:31:20.493Z,17.20
2019-04-13T22:34:11.754Z,17.20
2019-04-13T22:37:01.651Z,17.10
2019-04-13T22:39:51.028Z,17.10
2019-04-13T22:42:40.450Z,17.10
2019-04-13T22:45:29.784Z,17.00
2019-04-13T22:48:26.811Z,16.90
2019-04-13T22:51:25.594Z,16.90
2019-04-13T22:54:16.652Z,16.90
2019-04-13T22:57:19.942Z,16.80
2019-04-13T23:00:21.499Z,16.80
2019-04-13T23:03:16.075Z,16.70
2019-04-13T23:06:05.357Z,16.70
2019-04-13T23:08:55.344Z,16.60
2019-04-13T23:11:45.367Z,16.60
2019-04-13T23:14:35.070Z,16.50
2019-04-13T23:17:24.395Z,16.50
2019-04-13T23:20:14.641Z,16.50
2019-04-13T23:23:05.032Z,16.40
2019-04-13T23:25:55.048Z,16.40
2019-04-13T23:28:44.647Z,16.40
2019-04-13T23:31:33.024Z,16.30
2019-04-13T23:34:22.504Z,16.30
2019-04-13T23:37:12.407Z,16.30
2019-04-13T23:40:01.169Z,16.20
2019-04-13T23:42:50.506Z,16.20
2019-04-13T23:45:40.642Z,16.20
2019-04-13T23:48:30.717Z,16.10
2019-04-13T23:51:20.594Z,16.10
2019-04-13T23:54:09.239Z,16.10
2019-04-13T23:57:11.764Z,16.10
